createdAt,value
2019-04-24T00:00:37.260Z,14.30
2019-04-24T00:05:16.290Z,13.28
2019-04-24T00:06:14.750Z,13.78
2019-04-24T00:07:10.833Z,14.25
2019-04-24T00:08:26.814Z,14.53
2019-04-24T00:09:18.591Z,14.07
2019-04-24T00:10:40.476Z,14.23
2019-04-24T00:11:48.133Z,13.32
2019-04-24T00:13:02.998Z,14.75
2019-04-24T00:14:15.244Z,15.30
2019-04-24T00:20:03.381Z,14.15
2019-04-24T00:21:03.401Z,13.85
2019-04-24T00:22:14.842Z,14.30
2019-04-24T00:23:18.663Z,14.43
2019-04-24T00:24:20.450Z,14.55
2019-04-24T00:25:34.728Z,13.40
2019-04-24T00:26:22.777Z,13.30
2019-04-24T00:27:25.484Z,14.45
2019-04-24T00:28:33.312Z,14.63
2019-04-24T00:30:58.795Z,13.30
2019-04-24T00:34:22.913Z,14.07
2019-04-24T00:37:30.775Z,13.00
2019-04-24T00:40:48.573Z,14.50
2019-04-24T00:42:00.468Z,14.00
2019-04-24T00:43:02.520Z,14.75
2019-04-24T00:43:59.962Z,14.07
2019-04-24T00:45:07.682Z,14.00
2019-04-24T00:46:20.016Z,13.30
2019-04-24T00:47:22.699Z,14.60
2019-04-24T00:48:26.778Z,14.33
2019-04-24T00:49:27.657Z,13.10
2019-04-24T00:50:28.283Z,13.93
2019-04-24T00:52:52.539Z,13.53
2019-04-24T00:54:48.666Z,14.10
2019-04-24T00:56:07.607Z,14.35
2019-04-24T00:57:14.993Z,15.28
2019-04-24T00:58:15.058Z,14.63
2019-04-24T00:59:24.321Z,13.18
2019-04-24T01:00:24.780Z,13.98
2019-04-24T01:01:44.690Z,13.75
2019-04-24T01:03:52.376Z,12.55
2019-04-24T01:06:28.187Z,14.58
2019-04-24T01:07:44.373Z,13.80
2019-04-24T01:08:28.912Z,15.00
2019-04-24T01:10:11.927Z,14.65
2019-04-24T01:11:12.225Z,14.25
2019-04-24T01:12:15.470Z,14.05
2019-04-24T01:13:21.187Z,14.00
2019-04-24T01:14:19.496Z,14.85
2019-04-24T01:15:29.640Z,13.90
2019-04-24T01:16:41.540Z,13.75
2019-04-24T01:18:48.454Z,13.28
2019-04-24T01:20:11.425Z,13.38
2019-04-24T01:21:02.378Z,13.32
2019-04-24T01:25:30.164Z,13.62
2019-04-24T01:26:35.277Z,14.03
2019-04-24T01:27:38.905Z,15.20
2019-04-24T01:28:31.492Z,13.53
2019-04-24T01:29:42.415Z,13.58
2019-04-24T01:31:08.593Z,14.15
2019-04-24T01:32:09.251Z,13.80
2019-04-24T01:33:16.637Z,13.45
2019-04-24T01:34:26.158Z,12.35
2019-04-24T01:35:27.779Z,12.47
2019-04-24T01:37:48.013Z,13.93
2019-04-24T01:40:34.390Z,13.43
2019-04-24T01:41:15.015Z,12.98
2019-04-24T01:42:30.427Z,13.30
2019-04-24T01:44:29.697Z,12.65
2019-04-24T01:45:46.892Z,12.33
2019-04-24T01:46:37.296Z,12.40
2019-04-24T01:48:44.920Z,12.25
2019-04-24T01:49:51.521Z,12.65
2019-04-24T01:51:05.547Z,13.62
2019-04-24T01:52:17.773Z,12.93
2019-04-24T01:54:20.267Z,13.43
2019-04-24T01:55:14.367Z,12.47
2019-04-24T01:56:24.219Z,12.30
2019-04-24T01:57:32.695Z,12.13
2019-04-24T01:58:32.345Z,13.08
2019-04-24T02:01:51.470Z,12.13
2019-04-24T02:02:53.735Z,12.93
2019-04-24T02:05:09.700Z,13.90
2019-04-24T02:08:57.952Z,13.00
2019-04-24T02:10:26.957Z,13.80
2019-04-24T02:12:22.879Z,13.93
2019-04-24T02:13:24.125Z,13.68
2019-04-24T02:17:47.024Z,12.53
2019-04-24T02:19:47.294Z,13.32
2019-04-24T02:21:17.269Z,13.10
2019-04-24T02:22:02.121Z,13.35
2019-04-24T02:24:23.873Z,13.10
2019-04-24T02:26:22.150Z,12.80
2019-04-24T02:27:34.384Z,12.68
2019-04-24T02:34:08.453Z,12.35
2019-04-24T02:35:30.367Z,13.38
2019-04-24T02:36:35.850Z,13.22
2019-04-24T02:37:39.823Z,12.95
2019-04-24T02:41:09.950Z,14.05
2019-04-24T02:44:57.166Z,13.10
2019-04-24T02:45:54.980Z,13.70
2019-04-24T02:49:23.133Z,12.43
2019-04-24T02:51:15.534Z,13.00
2019-04-24T02:53:35.831Z,13.70
2019-04-24T02:57:01.193Z,13.03
2019-04-24T02:58:54.900Z,13.08
2019-04-24T03:04:37.271Z,14.33
2019-04-24T03:07:05.919Z,13.72
2019-04-24T03:08:11.660Z,13.10
2019-04-24T03:11:19.274Z,14.20
2019-04-24T03:12:52.583Z,12.63
2019-04-24T03:14:40.855Z,13.60
2019-04-24T03:15:50.550Z,12.93
2019-04-24T03:18:01.117Z,13.18
2019-04-24T03:19:29.619Z,13.00
2019-04-24T03:20:29.549Z,12.58
2019-04-24T03:21:28.951Z,14.43
2019-04-24T03:22:34.905Z,14.18
2019-04-24T03:23:42.700Z,14.00
2019-04-24T03:28:27.969Z,13.58
2019-04-24T03:36:18.587Z,13.38
2019-04-24T03:37:32.609Z,13.98
2019-04-24T03:39:57.196Z,13.93
2019-04-24T03:44:25.950Z,14.00
2019-04-24T03:47:09.777Z,14.13
2019-04-24T03:48:30.110Z,15.03
2019-04-24T03:49:35.802Z,14.40
2019-04-24T03:52:40.135Z,15.00
2019-04-24T03:55:10.149Z,14.68
2019-04-24T03:56:14.313Z,14.43
2019-04-24T03:57:36.081Z,15.95
2019-04-24T03:58:39.954Z,15.65
2019-04-24T03:59:55.155Z,14.10
2019-04-24T04:00:52.475Z,16.07
2019-04-24T04:04:31.783Z,15.55
2019-04-24T04:07:42.083Z,17.90
2019-04-24T04:09:01.592Z,16.93
2019-04-24T04:09:56.735Z,18.92
2019-04-24T04:13:34.016Z,18.23
2019-04-24T04:14:27.961Z,17.55
2019-04-24T04:15:24.677Z,17.37
2019-04-24T04:16:37.276Z,18.00
2019-04-24T04:18:53.421Z,16.57
2019-04-24T04:21:06.412Z,16.37
2019-04-24T04:22:18.442Z,17.20
2019-04-24T04:24:29.661Z,16.15
2019-04-24T04:25:37.830Z,18.20
2019-04-24T04:27:51.610Z,17.15
2019-04-24T04:31:31.104Z,18.30
2019-04-24T04:32:57.920Z,18.25
2019-04-24T04:34:58.269Z,19.40
2019-04-24T04:38:39.728Z,17.98
2019-04-24T04:39:06.848Z,17.35
2019-04-24T04:40:37.702Z,19.05
2019-04-24T04:41:37.169Z,19.52
2019-04-24T04:44:54.979Z,16.93
2019-04-24T04:46:13.707Z,17.85
2019-04-24T04:48:35.928Z,18.25
2019-04-24T04:49:50.132Z,16.25
2019-04-24T04:53:21.575Z,17.40
2019-04-24T04:57:56.569Z,17.37
2019-04-24T05:03:39.742Z,16.60
2019-04-24T05:10:06.638Z,16.93
2019-04-24T05:11:28.485Z,18.87
2019-04-24T05:13:15.420Z,18.07
2019-04-24T05:15:23.901Z,17.52
2019-04-24T05:19:06.953Z,19.48
2019-04-24T05:21:00.686Z,17.10
2019-04-24T05:23:05.109Z,16.97
2019-04-24T05:24:21.445Z,17.82
2019-04-24T05:27:45.185Z,18.35
2019-04-24T05:29:25.895Z,18.00
2019-04-24T05:30:11.338Z,17.35
2019-04-24T05:36:01.147Z,17.77
2019-04-24T05:38:30.967Z,16.85
2019-04-24T05:39:38.763Z,16.97
2019-04-24T05:45:06.012Z,19.00
2019-04-24T05:46:16.230Z,17.65
2019-04-24T05:47:36.076Z,16.25
2019-04-24T05:48:41.180Z,16.95
2019-04-24T05:49:44.426Z,16.80
2019-04-24T05:52:01.192Z,17.10
2019-04-24T05:53:17.564Z,16.30
2019-04-24T05:54:22.271Z,16.82
2019-04-24T05:57:09.587Z,15.90
2019-04-24T06:00:10.133Z,17.07
2019-04-24T06:02:40.293Z,16.37
2019-04-24T06:06:17.341Z,16.10
2019-04-24T06:09:28.733Z,15.83
2019-04-24T06:10:47.936Z,17.80
2019-04-24T06:12:51.888Z,16.37
2019-04-24T06:15:20.196Z,16.45
2019-04-24T06:16:37.930Z,16.10
2019-04-24T06:17:48.004Z,15.78
2019-04-24T06:20:33.489Z,16.05
2019-04-24T06:22:22.431Z,16.35
2019-04-24T06:24:01.441Z,16.75
2019-04-24T06:24:43.069Z,15.70
2019-04-24T06:26:14.369Z,16.50
2019-04-24T06:26:59.805Z,15.88
2019-04-24T06:28:03.546Z,15.60
2019-04-24T06:32:36.520Z,15.60
2019-04-24T06:33:58.466Z,15.55
2019-04-24T06:36:51.147Z,15.25
2019-04-24T06:37:38.860Z,14.15
2019-04-24T06:38:53.197Z,14.90
2019-04-24T06:40:21.532Z,13.98
2019-04-24T06:41:31.317Z,14.60
2019-04-24T06:42:47.010Z,15.40
2019-04-24T06:43:43.731Z,14.18
2019-04-24T06:46:08.672Z,15.25
2019-04-24T06:47:22.963Z,14.75
2019-04-24T06:48:06.712Z,14.53
2019-04-24T06:50:28.226Z,14.80
2019-04-24T06:51:23.559Z,13.58
2019-04-24T06:53:28.120Z,13.45
2019-04-24T06:57:17.232Z,12.93
2019-04-24T06:59:03.920Z,13.03
2019-04-24T07:00:25.811Z,13.55
2019-04-24T07:02:53.104Z,12.93
2019-04-24T07:05:09.752Z,13.43
2019-04-24T07:07:27.317Z,11.68
2019-04-24T07:08:25.621Z,12.58
2019-04-24T07:09:52.040Z,12.20
2019-04-24T07:12:18.863Z,11.57
2019-04-24T07:13:32.404Z,12.45
2019-04-24T07:14:32.649Z,11.75
2019-04-24T07:20:50.866Z,10.95
2019-04-24T07:21:49.062Z,11.88
2019-04-24T07:23:08.950Z,11.25
2019-04-24T07:24:10.432Z,11.97
2019-04-24T07:25:23.159Z,11.50
2019-04-24T07:26:13.912Z,11.48
2019-04-24T07:28:40.538Z,11.83
2019-04-24T07:29:49.147Z,11.45
2019-04-24T07:31:00.583Z,11.53
2019-04-24T07:32:15.489Z,12.13
2019-04-24T07:33:25.285Z,12.30
2019-04-24T07:35:52.635Z,10.68
2019-04-24T07:36:52.852Z,11.57
2019-04-24T07:39:21.073Z,11.00
2019-04-24T07:40:20.341Z,10.35
2019-04-24T07:42:26.193Z,10.93
2019-04-24T07:43:45.154Z,12.03
2019-04-24T07:44:49.249Z,13.00
2019-04-24T07:48:11.423Z,12.13
2019-04-24T07:49:28.366Z,12.58
2019-04-24T07:50:30.351Z,12.28
2019-04-24T07:51:38.406Z,11.48
2019-04-24T07:56:28.548Z,11.75
2019-04-24T07:58:28.897Z,11.55
2019-04-24T07:59:52.913Z,11.25
2019-04-24T08:01:44.674Z,10.70
2019-04-24T08:04:56.042Z,12.43
2019-04-24T08:06:11.417Z,11.05
2019-04-24T08:07:12.990Z,11.43
2019-04-24T08:08:31.158Z,10.70
2019-04-24T08:11:08.651Z,11.10
2019-04-24T08:12:00.627Z,10.60
2019-04-24T08:13:05.253Z,10.05
2019-04-24T08:14:18.093Z,10.85
2019-04-24T08:15:14.008Z,11.25
2019-04-24T08:17:45.701Z,11.35
2019-04-24T08:18:27.676Z,11.38
2019-04-24T08:20:50.074Z,10.50
2019-04-24T08:21:49.015Z,10.90
2019-04-24T08:22:55.195Z,10.80
2019-04-24T08:24:10.203Z,10.00
2019-04-24T08:28:29.096Z,11.83
2019-04-24T08:29:37.843Z,11.38
2019-04-24T08:30:57.204Z,10.48
2019-04-24T08:31:50.253Z,10.95
2019-04-24T08:33:05.552Z,10.98
2019-04-24T08:34:22.449Z,10.40
2019-04-24T08:35:11.356Z,10.55
2019-04-24T08:38:00.408Z,10.43
2019-04-24T08:39:15.402Z,9.40
2019-04-24T08:39:58.515Z,9.45
2019-04-24T08:41:15.800Z,9.83
2019-04-24T08:42:27.123Z,9.23
2019-04-24T08:43:36.459Z,8.78
2019-04-24T08:45:04.028Z,9.60
2019-04-24T08:47:12.202Z,9.35
2019-04-24T08:49:42.163Z,9.13
2019-04-24T08:51:05.926Z,9.55
2019-04-24T08:52:58.372Z,9.08
2019-04-24T08:55:21.715Z,8.30
2019-04-24T08:56:18.243Z,9.20
2019-04-24T09:01:06.355Z,9.40
2019-04-24T09:02:04.763Z,8.23
2019-04-24T09:04:45.334Z,9.05
2019-04-24T09:05:54.967Z,8.80
2019-04-24T09:06:47.336Z,8.55
2019-04-24T09:08:09.474Z,9.13
2019-04-24T09:09:08.514Z,9.05
2019-04-24T09:10:44.466Z,8.65
2019-04-24T09:11:40.013Z,8.03
2019-04-24T09:13:06.835Z,7.95
2019-04-24T09:14:13.128Z,8.65
2019-04-24T09:15:11.616Z,8.00
2019-04-24T09:17:20.239Z,8.20
2019-04-24T09:18:33.892Z,8.73
2019-04-24T09:20:43.705Z,8.48
2019-04-24T09:21:42.888Z,8.85
2019-04-24T09:31:01.802Z,7.33
2019-04-24T09:34:20.653Z,8.27
2019-04-24T09:36:49.011Z,6.90
2019-04-24T09:37:49.355Z,7.57
2019-04-24T09:41:45.149Z,7.77
2019-04-24T09:43:45.872Z,7.50
2019-04-24T09:44:49.051Z,7.47
2019-04-24T09:47:00.766Z,7.60
2019-04-24T09:49:08.885Z,8.70
2019-04-24T09:50:21.276Z,8.23
2019-04-24T09:52:29.379Z,7.77
2019-04-24T09:53:45.320Z,8.07
2019-04-24T09:54:40.123Z,7.70
2019-04-24T09:55:49.602Z,8.43
2019-04-24T09:57:00.787Z,8.10
2019-04-24T09:58:07.217Z,7.93
2019-04-24T10:00:14.735Z,8.20
2019-04-24T10:03:46.969Z,7.67
2019-04-24T10:07:21.544Z,8.30
2019-04-24T10:10:22.410Z,7.50
2019-04-24T10:15:09.166Z,7.20
2019-04-24T10:16:04.989Z,7.50
2019-04-24T10:17:18.287Z,8.07
2019-04-24T10:18:47.817Z,6.97
2019-04-24T10:19:47.110Z,7.17
2019-04-24T10:20:24.708Z,7.43
2019-04-24T10:21:39.003Z,7.23
2019-04-24T10:22:57.430Z,6.80
2019-04-24T10:24:01.162Z,6.90
2019-04-24T10:25:18.599Z,7.13
2019-04-24T10:26:13.524Z,7.20
2019-04-24T10:27:32.207Z,6.90
2019-04-24T10:28:53.669Z,7.20
2019-04-24T10:29:42.339Z,6.40
2019-04-24T10:33:21.633Z,6.77
2019-04-24T10:34:24.092Z,6.00
2019-04-24T10:35:49.739Z,6.77
2019-04-24T10:37:10.299Z,6.27
2019-04-24T10:39:42.192Z,6.53
2019-04-24T10:40:30.378Z,6.57
2019-04-24T10:41:49.136Z,6.93
2019-04-24T10:42:52.075Z,6.00
2019-04-24T10:44:17.830Z,6.30
2019-04-24T10:45:31.558Z,6.10
2019-04-24T10:46:51.449Z,5.97
2019-04-24T10:48:57.446Z,5.63
2019-04-24T10:50:03.169Z,6.80
2019-04-24T10:51:16.962Z,6.93
2019-04-24T10:53:29.540Z,7.50
2019-04-24T10:56:08.807Z,6.70
2019-04-24T10:57:59.841Z,6.97
2019-04-24T10:58:56.577Z,6.10
2019-04-24T11:01:25.638Z,7.10
2019-04-24T11:02:36.985Z,6.97
2019-04-24T11:05:15.360Z,6.50
2019-04-24T11:06:21.457Z,6.20
2019-04-24T11:07:49.006Z,6.40
2019-04-24T11:08:57.575Z,6.10
2019-04-24T11:12:55.379Z,6.63
2019-04-24T11:14:06.555Z,6.50
2019-04-24T11:15:23.223Z,6.00
2019-04-24T11:16:52.244Z,6.87
2019-04-24T11:17:57.902Z,6.50
2019-04-24T11:19:30.360Z,5.90
2019-04-24T11:20:59.633Z,6.23
2019-04-24T11:21:58.262Z,5.70
2019-04-24T11:23:27.880Z,6.10
2019-04-24T11:24:26.186Z,6.60
2019-04-24T11:26:52.644Z,6.60
2019-04-24T11:27:58.370Z,6.70
2019-04-24T11:29:05.567Z,6.50
2019-04-24T11:30:09.998Z,6.10
2019-04-24T11:31:25.746Z,5.93
2019-04-24T11:32:48.369Z,6.27
2019-04-24T11:36:15.987Z,6.60
2019-04-24T11:37:14.980Z,5.77
2019-04-24T11:38:42.937Z,6.40
2019-04-24T11:40:12.599Z,6.37
2019-04-24T11:41:00.823Z,5.90
2019-04-24T11:42:00.113Z,5.83
2019-04-24T11:43:26.440Z,5.70
2019-04-24T11:52:11.403Z,6.60
2019-04-24T11:53:10.647Z,6.50
2019-04-24T11:53:58.220Z,6.47
2019-04-24T11:56:38.123Z,6.37
2019-04-24T11:58:17.884Z,6.90
2019-04-24T11:59:51.221Z,6.43
2019-04-24T12:01:25.754Z,5.60
2019-04-24T12:02:24.297Z,6.90
2019-04-24T12:03:56.371Z,5.87
2019-04-24T12:05:22.991Z,6.30
2019-04-24T12:06:10.779Z,6.97
2019-04-24T12:07:24.375Z,6.20
2019-04-24T12:08:39.841Z,6.00
2019-04-24T12:09:36.527Z,5.70
2019-04-24T12:10:45.389Z,6.10
2019-04-24T12:11:47.293Z,7.10
2019-04-24T12:13:02.812Z,6.30
2019-04-24T12:14:23.017Z,6.27
2019-04-24T12:15:39.465Z,6.23
2019-04-24T12:17:53.211Z,6.37
2019-04-24T12:20:08.747Z,6.00
2019-04-24T12:21:28.521Z,5.70
2019-04-24T12:22:38.135Z,5.73
2019-04-24T12:24:49.904Z,6.50
2019-04-24T12:26:57.220Z,6.70
2019-04-24T12:29:05.128Z,5.63
2019-04-24T12:30:22.266Z,5.80
2019-04-24T12:31:29.681Z,6.03
2019-04-24T12:33:02.964Z,5.53
2019-04-24T12:33:56.655Z,5.40
2019-04-24T12:35:14.275Z,5.70
2019-04-24T12:36:13.069Z,5.70
2019-04-24T12:37:21.001Z,5.50
2019-04-24T12:38:35.148Z,5.63
2019-04-24T12:39:42.240Z,5.60
2019-04-24T12:42:13.156Z,5.87
2019-04-24T12:43:11.618Z,5.50
2019-04-24T12:44:19.780Z,6.73
2019-04-24T12:46:30.955Z,5.67
2019-04-24T12:48:51.044Z,6.17
2019-04-24T12:49:48.365Z,5.03
2019-04-24T12:50:50.747Z,5.70
2019-04-24T12:51:48.012Z,4.90
2019-04-24T12:53:01.552Z,5.50
2019-04-24T12:54:17.016Z,5.53
2019-04-24T12:55:14.817Z,5.57
2019-04-24T12:56:27.533Z,5.30
2019-04-24T12:57:51.232Z,5.40
2019-04-24T12:58:58.474Z,5.83
2019-04-24T12:59:48.135Z,5.93
2019-04-24T13:01:16.523Z,5.10
2019-04-24T13:02:29.785Z,5.83
2019-04-24T13:04:01.812Z,5.50
2019-04-24T13:05:00.878Z,5.17
2019-04-24T13:07:08.934Z,5.30
2019-04-24T13:08:33.687Z,5.60
2019-04-24T13:10:47.170Z,4.90
2019-04-24T13:11:36.075Z,5.07
2019-04-24T13:12:58.770Z,4.90
2019-04-24T13:14:13.418Z,4.87
2019-04-24T13:15:19.854Z,5.13
2019-04-24T13:16:46.432Z,4.63
2019-04-24T13:17:51.442Z,4.10
2019-04-24T13:20:32.445Z,4.50
2019-04-24T13:21:41.883Z,4.50
2019-04-24T13:22:49.264Z,5.00
2019-04-24T13:23:58.465Z,4.37
2019-04-24T13:25:32.198Z,4.40
2019-04-24T13:27:02.895Z,5.00
2019-04-24T13:28:14.624Z,4.70
2019-04-24T13:29:44.678Z,4.90
2019-04-24T13:31:34.846Z,4.17
2019-04-24T13:32:56.609Z,3.90
2019-04-24T13:33:53.863Z,4.20
2019-04-24T13:36:18.624Z,4.47
2019-04-24T13:37:18.112Z,4.07
2019-04-24T13:38:17.194Z,4.30
2019-04-24T13:39:34.532Z,3.67
2019-04-24T13:40:32.097Z,3.90
2019-04-24T13:41:52.864Z,3.93
2019-04-24T13:42:38.997Z,4.70
2019-04-24T13:44:58.921Z,4.30
2019-04-24T13:46:06.083Z,3.83
2019-04-24T13:47:04.307Z,3.70
2019-04-24T13:49:14.064Z,4.43
2019-04-24T13:50:24.867Z,4.13
2019-04-24T13:51:27.399Z,4.73
2019-04-24T13:53:12.052Z,3.80
2019-04-24T13:54:49.292Z,3.77
2019-04-24T13:55:47.051Z,3.40
2019-04-24T13:57:03.853Z,4.00
2019-04-24T13:58:09.677Z,3.50
2019-04-24T14:00:20.476Z,3.90
2019-04-24T14:01:37.087Z,3.63
2019-04-24T14:02:42.323Z,3.63
2019-04-24T14:03:45.784Z,3.40
2019-04-24T14:05:48.868Z,3.60
2019-04-24T14:06:53.165Z,3.37
2019-04-24T14:11:49.706Z,3.10
2019-04-24T14:14:34.415Z,3.67
2019-04-24T14:15:42.326Z,3.80
2019-04-24T14:16:47.837Z,3.73
2019-04-24T14:17:49.225Z,3.60
2019-04-24T14:18:59.836Z,3.53
2019-04-24T14:20:12.353Z,3.50
2019-04-24T14:22:13.693Z,3.70
2019-04-24T14:23:20.574Z,3.60
2019-04-24T14:24:28.635Z,3.63
2019-04-24T14:25:40.275Z,3.77
2019-04-24T14:26:47.876Z,3.43
2019-04-24T14:27:55.581Z,3.90
2019-04-24T14:29:04.414Z,4.20
2019-04-24T14:29:58.369Z,3.20
2019-04-24T14:31:08.101Z,3.00
2019-04-24T14:32:51.279Z,4.00
2019-04-24T14:33:22.137Z,3.50
2019-04-24T14:34:22.897Z,3.50
2019-04-24T14:36:32.583Z,3.70
2019-04-24T14:37:38.141Z,3.37
2019-04-24T14:38:46.865Z,3.90
2019-04-24T14:40:09.112Z,3.07
2019-04-24T14:42:05.273Z,3.33
2019-04-24T14:43:17.535Z,3.20
2019-04-24T14:45:14.667Z,3.10
2019-04-24T14:45:28.016Z,3.30
2019-04-24T14:46:28.204Z,3.27
2019-04-24T14:48:36.165Z,3.30
2019-04-24T14:49:49.915Z,3.60
2019-04-24T14:50:52.994Z,3.57
2019-04-24T14:53:04.885Z,3.10
2019-04-24T14:57:25.641Z,3.00
2019-04-24T14:58:21.635Z,3.57
2019-04-24T14:59:27.604Z,3.70
2019-04-24T15:00:32.926Z,2.90
2019-04-24T15:01:47.346Z,3.20
2019-04-24T15:03:45.033Z,3.20
2019-04-24T15:05:03.692Z,3.20
2019-04-24T15:06:06.827Z,3.40
2019-04-24T15:07:13.149Z,3.50
2019-04-24T15:08:11.238Z,2.80
2019-04-24T15:09:13.430Z,3.30
2019-04-24T15:11:20.250Z,3.70
2019-04-24T15:12:39.731Z,3.23
2019-04-24T15:13:59.055Z,3.60
2019-04-24T15:16:55.891Z,3.60
2019-04-24T15:18:02.512Z,2.90
2019-04-24T15:19:13.763Z,3.30
2019-04-24T15:22:31.672Z,3.17
2019-04-24T15:23:38.258Z,3.07
2019-04-24T15:25:54.132Z,3.50
2019-04-24T15:26:42.727Z,3.40
2019-04-24T15:27:56.011Z,2.90
2019-04-24T15:29:05.361Z,3.50
2019-04-24T15:29:53.827Z,2.80
2019-04-24T15:32:10.739Z,2.97
2019-04-24T15:35:39.849Z,3.27
2019-04-24T15:36:25.335Z,3.13
2019-04-24T15:37:33.645Z,3.13
2019-04-24T15:38:39.615Z,2.63
2019-04-24T15:40:51.459Z,2.80
2019-04-24T15:42:02.427Z,3.50
2019-04-24T15:43:58.141Z,3.33
2019-04-24T15:45:06.009Z,2.90
2019-04-24T15:46:12.087Z,3.43
2019-04-24T15:47:42.106Z,3.30
2019-04-24T15:49:39.605Z,3.30
2019-04-24T15:50:56.677Z,3.20
2019-04-24T15:51:35.828Z,3.80
2019-04-24T15:52:17.785Z,3.23
2019-04-24T15:53:21.393Z,4.10
2019-04-24T15:54:24.954Z,4.10
2019-04-24T15:55:31.428Z,3.60
2019-04-24T15:56:35.018Z,4.00
2019-04-24T15:57:39.779Z,3.87
2019-04-24T15:58:54.513Z,4.10
2019-04-24T16:00:13.784Z,4.20
2019-04-24T16:02:28.633Z,4.60
2019-04-24T16:03:38.647Z,4.10
2019-04-24T16:04:44.883Z,4.10
2019-04-24T16:05:16.516Z,4.93
2019-04-24T16:06:27.494Z,4.40
2019-04-24T16:07:32.742Z,4.50
2019-04-24T16:08:36.389Z,4.20
2019-04-24T16:09:41.574Z,4.40
2019-04-24T16:10:45.144Z,4.40
2019-04-24T16:11:48.780Z,5.70
2019-04-24T16:12:52.472Z,4.57
2019-04-24T16:14:04.522Z,3.87
2019-04-24T16:15:30.738Z,4.30
2019-04-24T16:17:41.375Z,4.33
2019-04-24T16:20:02.047Z,4.13
2019-04-24T16:22:00.142Z,4.70
2019-04-24T16:23:12.623Z,4.77
2019-04-24T16:25:21.678Z,5.03
2019-04-24T16:26:24.771Z,4.30
2019-04-24T16:28:54.069Z,4.30
2019-04-24T16:29:52.746Z,4.00
2019-04-24T16:30:49.756Z,3.90
2019-04-24T16:32:20.748Z,3.97
2019-04-24T16:33:02.732Z,4.90
2019-04-24T16:34:00.376Z,4.73
2019-04-24T16:35:05.558Z,4.57
2019-04-24T16:38:33.684Z,4.73
2019-04-24T16:39:25.787Z,3.90
2019-04-24T16:45:06.546Z,3.70
2019-04-24T16:47:19.598Z,4.60
2019-04-24T16:49:40.477Z,3.90
2019-04-24T16:50:48.673Z,3.90
2019-04-24T16:51:47.126Z,4.50
2019-04-24T16:52:56.316Z,4.03
2019-04-24T16:53:55.861Z,3.90
2019-04-24T16:55:10.182Z,4.47
2019-04-24T16:55:50.180Z,4.70
2019-04-24T16:57:03.409Z,4.40
2019-04-24T16:59:15.126Z,4.40
2019-04-24T17:02:34.255Z,4.83
2019-04-24T17:04:53.816Z,4.43
2019-04-24T17:07:00.891Z,4.30
2019-04-24T17:09:23.492Z,4.20
2019-04-24T17:10:14.479Z,4.33
2019-04-24T17:12:19.733Z,4.10
2019-04-24T17:13:29.085Z,4.70
2019-04-24T17:15:43.634Z,4.10
2019-04-24T17:18:03.136Z,4.77
2019-04-24T17:19:22.422Z,4.33
2019-04-24T17:20:08.183Z,4.60
2019-04-24T17:22:21.548Z,4.90
2019-04-24T17:23:27.702Z,4.87
2019-04-24T17:24:35.788Z,4.30
2019-04-24T17:25:39.913Z,4.73
2019-04-24T17:26:42.585Z,5.40
2019-04-24T17:27:55.487Z,4.50
2019-04-24T17:28:58.679Z,5.73
2019-04-24T17:30:07.807Z,5.00
2019-04-24T17:32:21.783Z,5.27
2019-04-24T17:33:13.994Z,4.73
2019-04-24T17:34:20.423Z,4.50
2019-04-24T17:35:30.276Z,4.63
2019-04-24T17:36:26.595Z,5.17
2019-04-24T17:37:06.981Z,5.10
2019-04-24T17:38:30.511Z,4.90
2019-04-24T17:39:35.717Z,4.73
2019-04-24T17:40:40.864Z,5.77
2019-04-24T17:41:51.485Z,5.40
2019-04-24T17:43:06.785Z,4.80
2019-04-24T17:46:52.561Z,5.20
2019-04-24T17:48:51.318Z,5.27
2019-04-24T17:50:04.913Z,5.43
2019-04-24T17:50:57.085Z,5.27
2019-04-24T17:53:11.720Z,5.70
2019-04-24T17:54:09.706Z,5.63
2019-04-24T17:55:33.462Z,5.60
2019-04-24T17:56:34.813Z,5.60
2019-04-24T17:57:24.819Z,5.50
2019-04-24T17:59:08.258Z,5.23
2019-04-24T18:00:13.730Z,5.97
2019-04-24T18:01:17.375Z,6.00
2019-04-24T18:02:22.574Z,5.73
2019-04-24T18:03:26.643Z,5.50
2019-04-24T18:04:31.294Z,5.93
2019-04-24T18:05:34.966Z,5.97
2019-04-24T18:06:38.505Z,6.03
2019-04-24T18:07:42.185Z,6.30
2019-04-24T18:08:45.914Z,5.73
2019-04-24T18:09:49.520Z,5.80
2019-04-24T18:10:53.154Z,5.60
2019-04-24T18:11:56.767Z,5.60
2019-04-24T18:13:01.020Z,5.87
2019-04-24T18:14:05.768Z,5.40
2019-04-24T18:15:09.411Z,6.70
2019-04-24T18:16:13.713Z,5.50
2019-04-24T18:17:17.593Z,6.37
2019-04-24T18:18:21.158Z,6.20
2019-04-24T18:19:24.775Z,6.33
2019-04-24T18:20:28.615Z,6.87
2019-04-24T18:21:32.401Z,6.10
2019-04-24T18:22:39.931Z,6.20
2019-04-24T18:23:42.107Z,7.00
2019-04-24T18:24:52.016Z,6.20
2019-04-24T18:25:57.197Z,6.87
2019-04-24T18:27:03.220Z,6.83
2019-04-24T18:28:06.796Z,7.03
2019-04-24T18:29:11.442Z,6.73
2019-04-24T18:30:17.310Z,7.20
2019-04-24T18:31:21.297Z,7.03
2019-04-24T18:32:26.381Z,7.17
2019-04-24T18:33:29.954Z,7.30
2019-04-24T18:34:35.041Z,6.87
2019-04-24T18:35:39.225Z,7.07
2019-04-24T18:36:42.977Z,7.27
2019-04-24T18:37:46.609Z,6.30
2019-04-24T18:38:51.328Z,7.80
2019-04-24T18:39:55.028Z,8.00
2019-04-24T18:40:58.603Z,8.17
2019-04-24T18:42:02.169Z,7.80
2019-04-24T18:43:05.963Z,7.67
2019-04-24T18:44:09.509Z,7.90
2019-04-24T18:45:15.399Z,7.43
2019-04-24T18:46:18.455Z,7.73
2019-04-24T18:47:22.026Z,8.83
2019-04-24T18:48:25.584Z,7.70
2019-04-24T18:49:29.195Z,7.43
2019-04-24T18:50:33.503Z,7.50
2019-04-24T18:51:37.071Z,7.30
2019-04-24T18:52:49.561Z,7.20
2019-04-24T18:53:45.854Z,7.90
2019-04-24T18:54:49.465Z,8.30
2019-04-24T18:55:53.106Z,8.20
2019-04-24T18:56:56.670Z,7.60
2019-04-24T18:58:00.238Z,8.20
2019-04-24T18:59:03.855Z,8.40
2019-04-24T19:00:08.332Z,8.20
2019-04-24T19:01:13.271Z,8.00
2019-04-24T19:02:17.128Z,8.50
2019-04-24T19:03:22.042Z,7.30
2019-04-24T19:04:25.795Z,8.03
2019-04-24T19:05:29.623Z,7.80
2019-04-24T19:06:33.722Z,7.70
2019-04-24T19:07:37.369Z,8.77
2019-04-24T19:08:41.354Z,8.60
2019-04-24T19:09:45.015Z,9.17
2019-04-24T19:10:48.613Z,8.23
2019-04-24T19:11:52.198Z,8.47
2019-04-24T19:12:55.836Z,8.73
2019-04-24T19:13:59.489Z,8.50
2019-04-24T19:15:03.523Z,8.93
2019-04-24T19:16:07.663Z,8.13
2019-04-24T19:17:12.483Z,8.50
2019-04-24T19:18:16.366Z,8.33
2019-04-24T19:19:19.930Z,7.73
2019-04-24T19:20:25.041Z,8.23
2019-04-24T19:21:28.670Z,7.87
2019-04-24T19:22:32.242Z,8.00
2019-04-24T19:23:35.806Z,8.63
2019-04-24T19:24:39.446Z,8.63
2019-04-24T19:25:43.079Z,7.70
2019-04-24T19:26:46.690Z,7.63
2019-04-24T19:27:51.076Z,8.23
2019-04-24T19:28:55.478Z,8.80
2019-04-24T19:29:59.037Z,9.10
2019-04-24T19:31:04.139Z,7.97
2019-04-24T19:32:08.946Z,7.80
2019-04-24T19:33:13.526Z,7.93
2019-04-24T19:34:17.273Z,7.77
2019-04-24T19:35:20.842Z,7.80
2019-04-24T19:36:24.407Z,7.60
2019-04-24T19:37:28.002Z,8.60
2019-04-24T19:38:32.565Z,8.40
2019-04-24T19:39:36.291Z,9.07
2019-04-24T19:40:41.945Z,8.50
2019-04-24T19:41:45.080Z,7.47
2019-04-24T19:42:48.646Z,8.33
2019-04-24T19:43:52.221Z,8.10
2019-04-24T19:44:55.839Z,8.77
2019-04-24T19:45:59.412Z,7.60
2019-04-24T19:47:02.976Z,8.23
2019-04-24T19:48:06.546Z,7.80
2019-04-24T19:49:10.858Z,7.77
2019-04-24T19:50:15.770Z,8.17
2019-04-24T19:51:19.455Z,8.00
2019-04-24T19:52:23.061Z,8.03
2019-04-24T19:53:26.644Z,7.43
2019-04-24T19:54:31.762Z,8.50
2019-04-24T19:55:35.557Z,8.03
2019-04-24T19:56:39.129Z,7.80
2019-04-24T19:57:42.746Z,7.73
2019-04-24T19:58:46.395Z,7.77
2019-04-24T19:59:49.962Z,7.83
2019-04-24T20:00:53.527Z,7.83
2019-04-24T20:01:57.105Z,7.70
2019-04-24T20:03:01.396Z,8.40
2019-04-24T20:04:05.756Z,7.93
2019-04-24T20:05:11.979Z,7.80
2019-04-24T20:06:15.407Z,7.20
2019-04-24T20:07:19.818Z,8.80
2019-04-24T20:08:26.510Z,7.80
2019-04-24T20:09:42.072Z,7.97
2019-04-24T20:10:47.274Z,7.70
2019-04-24T20:11:52.473Z,7.47
2019-04-24T20:12:56.042Z,7.90
2019-04-24T20:13:59.659Z,7.23
2019-04-24T20:15:03.803Z,9.00
2019-04-24T20:16:07.818Z,7.37
2019-04-24T20:17:12.641Z,7.67
2019-04-24T20:18:16.746Z,6.63
2019-04-24T20:19:22.493Z,7.10
2019-04-24T20:20:25.610Z,6.93
2019-04-24T20:21:29.295Z,5.03
2019-04-24T20:22:32.866Z,3.83
2019-04-24T20:23:37.031Z,3.13
2019-04-24T20:24:40.373Z,2.95
2019-04-24T20:25:43.945Z,3.40
2019-04-24T20:26:47.649Z,2.70
2019-04-24T20:27:51.522Z,2.47
2019-04-24T20:28:55.125Z,2.70
2019-04-24T20:29:58.703Z,2.62
2019-04-24T20:31:02.275Z,2.47
2019-04-24T20:32:05.971Z,2.35
2019-04-24T20:33:09.541Z,2.25
2019-04-24T20:34:14.471Z,2.75
2019-04-24T20:35:18.591Z,2.20
2019-04-24T20:36:22.723Z,2.17
2019-04-24T20:37:27.182Z,2.40
2019-04-24T20:38:31.977Z,1.85
2019-04-24T20:39:35.614Z,2.15